createdAt,value
2022-12-13T00:01:26.797Z,94909.25
2022-12-13T00:03:54.489Z,94906.38
2022-12-13T00:06:21.091Z,94911.88
2022-12-13T00:08:47.467Z,94906.53
2022-12-13T00:11:14.406Z,94901.50
2022-12-13T00:13:41.762Z,94907.66
2022-12-13T00:16:10.149Z,94909.59
2022-12-13T00:18:36.587Z,94912.84
2022-12-13T00:21:07.019Z,94908.97
2022-12-13T00:23:33.767Z,94917.06
2022-12-13T00:26:03.972Z,94917.72
2022-12-13T00:28:30.579Z,94919.97
2022-12-13T00:31:04.350Z,94915.13
2022-12-13T00:33:40.157Z,94913.50
2022-12-13T00:36:07.774Z,94921.28
2022-12-13T00:38:35.218Z,94916.09
2022-12-13T00:41:15.382Z,94928.13
2022-12-13T00:43:42.232Z,94922.13
2022-12-13T00:46:13.477Z,94921.00
2022-12-13T00:48:39.953Z,94921.63
2022-12-13T00:51:07.873Z,94927.97
2022-12-13T00:53:34.357Z,94929.09
2022-12-13T00:56:00.727Z,94927.78
2022-12-13T00:58:27.166Z,94932.84
2022-12-13T01:00:53.573Z,94932.69
2022-12-13T01:03:20.698Z,94933.31
2022-12-13T01:06:14.476Z,94936.72
2022-12-13T01:08:34.106Z,94939.81
2022-12-13T01:11:00.498Z,94941.59
2022-12-13T01:13:33.363Z,94944.34
2022-12-13T01:16:01.651Z,94943.25
2022-12-13T01:18:28.027Z,94946.28
2022-12-13T01:20:59.079Z,94950.66
2022-12-13T01:23:26.221Z,94939.00
2022-12-13T01:25:52.657Z,94956.41
2022-12-13T01:28:19.613Z,94950.88
2022-12-13T01:30:53.193Z,94961.09
2022-12-13T01:33:19.590Z,94947.63
2022-12-13T01:35:45.959Z,94948.94
2022-12-13T01:38:15.634Z,94950.53
2022-12-13T01:40:43.901Z,94950.03
2022-12-13T01:43:14.271Z,94954.13
2022-12-13T01:45:41.296Z,94959.81
2022-12-13T01:48:10.258Z,94958.66
2022-12-13T01:50:38.935Z,94954.78
2022-12-13T01:53:07.058Z,94962.91
2022-12-13T01:55:41.551Z,94963.84
2022-12-13T01:58:08.541Z,94961.25
2022-12-13T02:00:35.997Z,94966.94
2022-12-13T02:03:02.779Z,94954.59
2022-12-13T02:05:41.308Z,94965.81
2022-12-13T02:08:10.283Z,94971.03
2022-12-13T02:10:36.657Z,94974.44
2022-12-13T02:13:03.264Z,94965.50
2022-12-13T02:15:36.623Z,94971.66
2022-12-13T02:18:21.943Z,94962.41
2022-12-13T02:21:02.093Z,94974.41
2022-12-13T02:23:41.361Z,94980.44
2022-12-13T02:26:10.552Z,94980.59
2022-12-13T02:28:36.919Z,94978.81
2022-12-13T02:31:09.647Z,94981.41
2022-12-13T02:33:40.321Z,94978.63
2022-12-13T02:36:27.018Z,94986.31
2022-12-13T02:38:59.836Z,94987.91
2022-12-13T02:41:38.400Z,94991.50
2022-12-13T02:44:22.139Z,94987.25
2022-12-13T02:47:02.730Z,94984.31
2022-12-13T02:49:33.606Z,94986.31
2022-12-13T02:52:00.515Z,94986.09
2022-12-13T02:54:26.982Z,94993.91
2022-12-13T02:56:54.577Z,94993.72
2022-12-13T02:59:22.015Z,94992.75
2022-12-13T03:01:51.334Z,94991.47
2022-12-13T03:05:12.174Z,94992.78
2022-12-13T03:08:01.940Z,94992.78
2022-12-13T03:10:40.562Z,94993.56
2022-12-13T03:13:27.397Z,94998.75
2022-12-13T03:15:57.894Z,95002.81
2022-12-13T03:18:26.435Z,94996.00
2022-12-13T03:21:13.152Z,95002.69
2022-12-13T03:23:40.278Z,94997.66
2022-12-13T03:26:09.928Z,95007.03
2022-12-13T03:28:37.018Z,95002.81
2022-12-13T03:31:03.571Z,95005.72
2022-12-13T03:33:30.038Z,95010.63
2022-12-13T03:35:56.993Z,95016.78
2022-12-13T03:38:23.657Z,95009.00
2022-12-13T03:40:55.712Z,95018.28
2022-12-13T03:43:23.122Z,95024.25
2022-12-13T03:45:50.474Z,95010.81
2022-12-13T03:48:22.339Z,95029.78
2022-12-13T03:50:50.379Z,95026.84
2022-12-13T03:53:23.043Z,95029.78
2022-12-13T03:56:00.938Z,95030.88
2022-12-13T03:58:36.568Z,95035.25
2022-12-13T04:01:07.575Z,95031.97
2022-12-13T04:03:34.493Z,95044.25
2022-12-13T04:06:00.872Z,95047.53
2022-12-13T04:08:27.299Z,95049.63
2022-12-13T04:10:53.711Z,95042.34
2022-12-13T04:13:35.472Z,95051.47
2022-12-13T04:16:02.679Z,95048.22
2022-12-13T04:18:29.272Z,95055.00
2022-12-13T04:20:55.702Z,95061.84
2022-12-13T04:23:22.089Z,95054.66
2022-12-13T04:25:48.466Z,95066.69
2022-12-13T04:28:22.830Z,95059.34
2022-12-13T04:30:53.517Z,95059.47
2022-12-13T04:33:21.223Z,95062.22
2022-12-13T04:35:47.900Z,95067.53
2022-12-13T04:38:14.520Z,95055.50
2022-12-13T04:40:40.938Z,95062.63
2022-12-13T04:43:07.301Z,95059.69
2022-12-13T04:45:33.939Z,95062.41
2022-12-13T04:48:00.462Z,95057.00
2022-12-13T04:50:26.832Z,95066.75
2022-12-13T04:52:53.289Z,95064.63
2022-12-13T04:55:19.677Z,95062.88
2022-12-13T04:57:46.040Z,95061.84
2022-12-13T05:00:15.861Z,95056.34
2022-12-13T05:02:42.415Z,95065.22
2022-12-13T05:05:09.516Z,95063.25
2022-12-13T05:07:35.935Z,95063.56
2022-12-13T05:10:09.040Z,95065.34
2022-12-13T05:12:35.423Z,95066.84
2022-12-13T05:15:01.853Z,95064.09
2022-12-13T05:17:28.231Z,95066.69
2022-12-13T05:19:54.663Z,95053.41
2022-12-13T05:22:21.420Z,95070.59
2022-12-13T05:24:48.422Z,95073.13
2022-12-13T05:27:24.975Z,95066.59
2022-12-13T05:30:02.825Z,95074.19
2022-12-13T05:32:43.330Z,95067.38
2022-12-13T05:35:23.105Z,95077.59
2022-12-13T05:37:54.341Z,95073.81
2022-12-13T05:40:21.944Z,95075.22
2022-12-13T05:42:48.326Z,95075.84
2022-12-13T05:45:16.238Z,95078.75
2022-12-13T05:47:42.975Z,95078.91
2022-12-13T05:50:09.639Z,95084.44
2022-12-13T05:52:36.150Z,95084.53
2022-12-13T05:55:02.636Z,95076.09
2022-12-13T05:57:29.538Z,95085.94
2022-12-13T05:59:56.108Z,95094.28
2022-12-13T06:02:23.039Z,95094.44
2022-12-13T06:04:49.523Z,95108.06
2022-12-13T06:07:15.949Z,95101.72
2022-12-13T06:09:42.774Z,95101.31
2022-12-13T06:12:31.411Z,95097.25
2022-12-13T06:15:01.369Z,95102.41
2022-12-13T06:17:35.280Z,95100.41
2022-12-13T06:20:01.892Z,95107.41
2022-12-13T06:22:28.276Z,95110.16
2022-12-13T06:24:55.033Z,95111.16
2022-12-13T06:27:21.829Z,95115.69
2022-12-13T06:29:48.261Z,95126.59
2022-12-13T06:32:14.905Z,95134.22
2022-12-13T06:34:41.273Z,95138.88
2022-12-13T06:37:10.660Z,95140.25
2022-12-13T06:39:37.052Z,95144.34
2022-12-13T06:42:06.266Z,95146.81
2022-12-13T06:44:33.221Z,95153.75
2022-12-13T06:47:11.129Z,95151.69
2022-12-13T06:49:39.309Z,95156.34
2022-12-13T06:52:05.928Z,95161.47
2022-12-13T06:54:33.056Z,95155.34
2022-12-13T06:56:59.797Z,95158.50
2022-12-13T06:59:26.214Z,95168.13
2022-12-13T07:01:52.659Z,95172.34
2022-12-13T07:04:28.989Z,95165.50
2022-12-13T07:07:01.753Z,95167.69
2022-12-13T07:09:29.589Z,95179.50
2022-12-13T07:11:55.953Z,95178.13
2022-12-13T07:14:22.318Z,95184.78
2022-12-13T07:16:48.730Z,95181.66
2022-12-13T07:19:23.902Z,95184.75
2022-12-13T07:21:51.373Z,95184.75
2022-12-13T07:24:17.833Z,95188.53
2022-12-13T07:26:44.218Z,95191.25
2022-12-13T07:29:10.620Z,95195.31
2022-12-13T07:31:37.741Z,95205.06
2022-12-13T07:34:04.282Z,95206.81
2022-12-13T07:36:30.689Z,95200.16
2022-12-13T07:38:57.708Z,95206.94
2022-12-13T07:41:25.136Z,95211.31
2022-12-13T07:43:55.608Z,95203.72
2022-12-13T07:46:33.018Z,95213.47
2022-12-13T07:49:03.292Z,95209.06
2022-12-13T07:51:29.738Z,95203.47
2022-12-13T07:53:56.263Z,95210.78
2022-12-13T07:56:22.638Z,95203.78
2022-12-13T07:58:49.160Z,95209.47
2022-12-13T08:01:15.556Z,95216.78
2022-12-13T08:03:42.070Z,95211.63
2022-12-13T08:06:10.088Z,95209.03
2022-12-13T08:08:37.639Z,95211.63
2022-12-13T08:11:05.639Z,95215.25
2022-12-13T08:13:32.306Z,95210.72
2022-12-13T08:16:02.478Z,95210.97
2022-12-13T08:18:29.333Z,95214.50
2022-12-13T08:20:59.623Z,95211.78
2022-12-13T08:23:26.233Z,95213.66
2022-12-13T08:25:53.669Z,95211.22
2022-12-13T08:28:20.636Z,95206.56
2022-12-13T08:30:47.786Z,95208.00
2022-12-13T08:33:14.161Z,95212.72
2022-12-13T08:35:40.589Z,95212.97
2022-12-13T08:38:07.743Z,95223.16
2022-12-13T08:40:34.979Z,95220.00
2022-12-13T08:43:01.682Z,95214.84
2022-12-13T08:45:28.174Z,95216.88
2022-12-13T08:47:57.105Z,95219.00
2022-12-13T08:50:23.486Z,95218.16
2022-12-13T08:52:51.117Z,95227.06
2022-12-13T08:55:21.111Z,95215.28
2022-12-13T08:57:57.790Z,95226.03
2022-12-13T09:00:27.897Z,95221.16
2022-12-13T09:02:57.278Z,95215.88
2022-12-13T09:05:33.272Z,95216.81
2022-12-13T09:08:02.918Z,95217.66
2022-12-13T09:10:29.917Z,95221.72
2022-12-13T09:13:11.872Z,95218.88
2022-12-13T09:15:51.717Z,95219.00
2022-12-13T09:18:24.038Z,95221.72
2022-12-13T09:20:52.114Z,95215.53
2022-12-13T09:23:23.842Z,95214.19
2022-12-13T09:25:55.040Z,95214.09
2022-12-13T09:28:21.720Z,95220.88
2022-12-13T09:30:48.102Z,95219.13
2022-12-13T09:33:28.631Z,95228.59
2022-12-13T09:35:57.386Z,95226.59
2022-12-13T09:38:23.841Z,95219.56
2022-12-13T09:40:58.381Z,95225.28
2022-12-13T09:43:32.064Z,95213.91
2022-12-13T09:46:02.201Z,95216.13
2022-12-13T09:48:29.410Z,95212.34
2022-12-13T09:51:15.983Z,95215.50
2022-12-13T09:53:49.522Z,95210.06
2022-12-13T09:56:18.451Z,95213.09
2022-12-13T09:58:47.943Z,95220.72
2022-12-13T10:01:22.834Z,95223.19
2022-12-13T10:03:52.533Z,95221.06
2022-12-13T10:06:22.488Z,95220.41
2022-12-13T10:08:58.966Z,95218.13
2022-12-13T10:11:31.477Z,95217.66
2022-12-13T10:14:04.127Z,95214.97
2022-12-13T10:16:35.930Z,95213.41
2022-12-13T10:19:29.251Z,95209.78
2022-12-13T10:22:01.423Z,95211.34
2022-12-13T10:24:36.335Z,95212.22
2022-12-13T10:27:14.380Z,95198.38
2022-12-13T10:29:57.024Z,95198.50
2022-12-13T10:32:23.509Z,95202.22
2022-12-13T10:34:50.043Z,95204.94
2022-12-13T10:37:29.423Z,95193.00
2022-12-13T10:39:56.033Z,95192.91
2022-12-13T10:42:25.848Z,95191.00
2022-12-13T10:45:15.407Z,95186.81
2022-12-13T10:47:43.150Z,95192.66
2022-12-13T10:50:21.083Z,95184.78
2022-12-13T10:52:48.149Z,95174.28
2022-12-13T10:55:33.536Z,95176.75
2022-12-13T10:58:07.198Z,95181.06
2022-12-13T11:00:35.740Z,95179.53
2022-12-13T11:03:02.704Z,95178.44
2022-12-13T11:05:30.933Z,95177.69
2022-12-13T11:08:11.589Z,95174.13
2022-12-13T11:10:38.138Z,95179.16
2022-12-13T11:13:06.507Z,95179.25
2022-12-13T11:15:34.661Z,95177.56
2022-12-13T11:18:08.576Z,95174.25
2022-12-13T11:20:36.681Z,95172.72
2022-12-13T11:23:07.614Z,95179.78
2022-12-13T11:25:38.745Z,95171.44
2022-12-13T11:28:26.587Z,95173.31
2022-12-13T11:31:09.057Z,95164.94
2022-12-13T11:33:56.152Z,95156.59
2022-12-13T11:36:48.799Z,95162.00
2022-12-13T11:39:33.894Z,95163.06
2022-12-13T11:42:19.265Z,95162.44
2022-12-13T11:44:56.111Z,95165.72
2022-12-13T11:47:29.051Z,95161.72
2022-12-13T11:49:56.930Z,95155.78
2022-12-13T11:52:35.351Z,95166.38
2022-12-13T11:55:05.349Z,95162.53
2022-12-13T11:57:34.843Z,95166.31
2022-12-13T12:00:17.427Z,95167.78
2022-12-13T12:03:07.386Z,95155.78
2022-12-13T12:05:36.275Z,95159.72
2022-12-13T12:08:40.345Z,95157.50
2022-12-13T12:11:21.140Z,95157.34
2022-12-13T12:13:53.998Z,95160.59
2022-12-13T12:16:28.621Z,95154.59
2022-12-13T12:18:55.200Z,95157.19
2022-12-13T12:22:04.839Z,95158.81
2022-12-13T12:24:23.327Z,95156.38
2022-12-13T12:26:49.707Z,95156.22
2022-12-13T12:29:48.075Z,95159.16
2022-12-13T12:32:29.854Z,95162.44
2022-12-13T12:35:04.734Z,95155.97
2022-12-13T12:37:57.256Z,95150.78
2022-12-13T12:40:52.186Z,95163.31
2022-12-13T12:43:26.409Z,95158.63
2022-12-13T12:46:07.591Z,95163.81
2022-12-13T12:49:01.339Z,95161.91
2022-12-13T12:51:29.036Z,95158.31
2022-12-13T12:54:01.600Z,95165.31
2022-12-13T12:56:30.976Z,95157.88
2022-12-13T12:59:06.663Z,95162.31
2022-12-13T13:01:44.512Z,95171.44
2022-12-13T13:04:12.938Z,95171.13
2022-12-13T13:06:51.337Z,95168.56
2022-12-13T13:09:24.473Z,95166.47
2022-12-13T13:11:51.445Z,95163.56
2022-12-13T13:14:27.083Z,95166.16
2022-12-13T13:16:53.961Z,95169.44
2022-12-13T13:19:25.766Z,95165.41
2022-12-13T13:21:54.148Z,95173.56
2022-12-13T13:24:22.111Z,95170.13
2022-12-13T13:26:48.556Z,95172.56
2022-12-13T13:29:26.991Z,95183.28
2022-12-13T13:32:28.983Z,95177.88
2022-12-13T13:35:16.320Z,95182.22
2022-12-13T13:37:46.989Z,95182.75
2022-12-13T13:40:13.342Z,95179.91
2022-12-13T13:43:10.005Z,95178.06
2022-12-13T13:45:51.833Z,95175.41
2022-12-13T13:48:37.079Z,95175.50
2022-12-13T13:51:22.495Z,95176.69
2022-12-13T13:53:51.860Z,95183.22
2022-12-13T13:56:27.629Z,95179.88
2022-12-13T13:59:03.187Z,95187.56
2022-12-13T14:01:45.820Z,95179.41
2022-12-13T14:04:34.154Z,95197.16
2022-12-13T14:07:13.846Z,95193.94
2022-12-13T14:09:47.120Z,95196.66
2022-12-13T14:12:16.274Z,95197.63
2022-12-13T14:14:51.881Z,95190.56
2022-12-13T14:17:50.246Z,95194.72
2022-12-13T14:20:34.825Z,95203.34
2022-12-13T14:23:10.289Z,95203.25
2022-12-13T14:25:58.476Z,95200.03
2022-12-13T14:28:28.506Z,95205.25
2022-12-13T14:30:57.714Z,95205.16
2022-12-13T14:33:25.625Z,95208.56
2022-12-13T14:35:56.843Z,95216.91
2022-12-13T14:38:25.641Z,95210.66
2022-12-13T14:40:54.423Z,95219.13
2022-12-13T14:43:24.516Z,95219.69
2022-12-13T14:45:58.570Z,95227.34
2022-12-13T14:48:27.896Z,95229.00
2022-12-13T14:50:55.448Z,95234.16
2022-12-13T14:53:25.595Z,95228.44
2022-12-13T14:56:27.557Z,95227.09
2022-12-13T14:58:55.393Z,95234.72
2022-12-13T15:01:29.988Z,95239.34
2022-12-13T15:04:15.179Z,95246.28
2022-12-13T15:06:41.709Z,95251.34
2022-12-13T15:09:15.685Z,95257.31
2022-12-13T15:11:43.903Z,95248.19
2022-12-13T15:14:15.778Z,95260.03
2022-12-13T15:16:51.548Z,95266.28
2022-12-13T15:19:30.281Z,95261.25
2022-12-13T15:22:07.895Z,95260.97
2022-12-13T15:24:36.580Z,95272.28
2022-12-13T15:27:03.934Z,95268.16
2022-12-13T15:29:31.921Z,95269.56
2022-12-13T15:31:58.468Z,95270.25
2022-12-13T15:34:28.789Z,95278.94
2022-12-13T15:36:57.749Z,95280.59
2022-12-13T15:39:25.056Z,95278.00
2022-12-13T15:41:51.680Z,95279.88
2022-12-13T15:44:20.546Z,95278.50
2022-12-13T15:46:48.779Z,95274.16
2022-12-13T15:49:33.340Z,95273.88
2022-12-13T15:52:01.974Z,95280.66
2022-12-13T15:54:28.847Z,95278.59
2022-12-13T15:57:15.089Z,95282.78
2022-12-13T15:59:42.494Z,95275.94
2022-12-13T16:02:14.734Z,95291.84
2022-12-13T16:04:41.199Z,95284.63
2022-12-13T16:07:20.170Z,95285.69
2022-12-13T16:09:48.221Z,95288.94
2022-12-13T16:12:21.383Z,95296.13
2022-12-13T16:14:49.675Z,95295.56
2022-12-13T16:17:27.037Z,95296.75
2022-12-13T16:19:54.313Z,95301.09
2022-12-13T16:22:23.850Z,95297.84
2022-12-13T16:24:53.283Z,95287.97
2022-12-13T16:27:20.087Z,95300.59
2022-12-13T16:29:46.512Z,95291.19
2022-12-13T16:32:13.088Z,95300.03
2022-12-13T16:34:39.820Z,95294.06
2022-12-13T16:37:08.492Z,95294.63
2022-12-13T16:39:52.252Z,95300.75
2022-12-13T16:42:18.838Z,95299.78
2022-12-13T16:44:47.238Z,95303.88
2022-12-13T16:47:22.247Z,95302.09
2022-12-13T16:49:56.574Z,95309.34
2022-12-13T16:52:23.134Z,95303.34
2022-12-13T16:54:50.444Z,95311.19
2022-12-13T16:57:16.819Z,95314.16
2022-12-13T16:59:43.208Z,95306.56
2022-12-13T17:02:16.609Z,95313.25
2022-12-13T17:04:43.141Z,95315.31
2022-12-13T17:07:09.508Z,95317.22
2022-12-13T17:09:36.022Z,95313.19
2022-12-13T17:12:02.693Z,95306.66
2022-12-13T17:14:29.127Z,95317.56
2022-12-13T17:16:55.738Z,95313.22
2022-12-13T17:19:22.339Z,95321.88
2022-12-13T17:21:48.747Z,95327.63
2022-12-13T17:24:15.511Z,95330.94
2022-12-13T17:26:47.345Z,95329.59
2022-12-13T17:29:21.390Z,95332.59
2022-12-13T17:31:47.923Z,95327.41
2022-12-13T17:34:14.413Z,95336.97
2022-12-13T17:36:40.814Z,95334.94
2022-12-13T17:39:07.264Z,95340.25
2022-12-13T17:41:33.660Z,95335.09
2022-12-13T17:44:00.889Z,95336.72
2022-12-13T17:46:27.341Z,95336.72
2022-12-13T17:48:53.740Z,95342.16
2022-12-13T17:51:20.242Z,95344.47
2022-12-13T17:53:46.658Z,95336.47
2022-12-13T17:56:15.743Z,95347.91
2022-12-13T17:58:42.398Z,95349.00
2022-12-13T18:01:12.551Z,95357.72
2022-12-13T18:03:39.075Z,95352.56
2022-12-13T18:06:07.121Z,95358.41
2022-12-13T18:08:34.933Z,95354.59
2022-12-13T18:13:47.843Z,95359.94
2022-12-13T18:16:21.118Z,95351.91
2022-12-13T18:18:54.937Z,95343.47
2022-12-13T18:21:22.674Z,95349.19
2022-12-13T18:23:55.104Z,95346.88
2022-12-13T18:26:22.025Z,95351.50
2022-12-13T18:28:48.507Z,95358.44
2022-12-13T18:31:16.447Z,95357.50
2022-12-13T18:33:47.286Z,95361.03
2022-12-13T18:36:14.152Z,95357.78
2022-12-13T18:38:42.256Z,95364.03
2022-12-13T18:41:19.453Z,95361.84
2022-12-13T18:43:46.002Z,95359.69
2022-12-13T18:46:13.423Z,95356.41
2022-12-13T18:48:40.557Z,95362.41
2022-12-13T18:51:09.718Z,95363.50
2022-12-13T18:53:37.317Z,95362.81
2022-12-13T18:56:05.321Z,95361.34
2022-12-13T18:58:32.202Z,95358.34
2022-12-13T19:00:58.684Z,95364.72
2022-12-13T19:03:26.257Z,95361.84
2022-12-13T19:05:53.108Z,95362.41
2022-12-13T19:08:19.849Z,95366.06
2022-12-13T19:10:47.678Z,95363.06
2022-12-13T19:13:14.052Z,95369.59
2022-12-13T19:15:40.868Z,95362.09
2022-12-13T19:18:07.361Z,95355.56
2022-12-13T19:20:33.796Z,95356.97
2022-12-13T19:23:00.240Z,95364.03
2022-12-13T19:25:26.774Z,95354.94
2022-12-13T19:27:56.701Z,95362.13
2022-12-13T19:30:23.875Z,95363.94
2022-12-13T19:32:50.371Z,95359.41
2022-12-13T19:35:16.877Z,95363.38
2022-12-13T19:37:43.298Z,95357.78
2022-12-13T19:40:10.313Z,95357.00
2022-12-13T19:42:36.722Z,95362.31
2022-12-13T19:45:03.175Z,95364.88
2022-12-13T19:47:29.582Z,95360.97
2022-12-13T19:49:56.008Z,95360.00
2022-12-13T19:52:22.466Z,95361.19
2022-12-13T19:54:49.087Z,95361.47
2022-12-13T19:57:15.494Z,95373.63
2022-12-13T19:59:41.852Z,95364.38
2022-12-13T20:02:09.538Z,95356.03
2022-12-13T20:04:36.021Z,95366.00
2022-12-13T20:07:02.440Z,95368.47
2022-12-13T20:09:29.784Z,95372.81
2022-12-13T20:11:56.170Z,95366.81
2022-12-13T20:14:22.589Z,95370.09
2022-12-13T20:16:49.071Z,95368.19
2022-12-13T20:19:15.521Z,95361.34
2022-12-13T20:21:41.893Z,95354.28
2022-12-13T20:24:08.421Z,95348.94
2022-12-13T20:26:35.079Z,95343.38
2022-12-13T20:29:01.516Z,95355.66
2022-12-13T20:31:31.743Z,95355.91
2022-12-13T20:33:59.567Z,95355.13
2022-12-13T20:36:27.740Z,95362.47
2022-12-13T20:39:01.273Z,95356.72
2022-12-13T20:41:29.226Z,95358.66
2022-12-13T20:43:56.992Z,95358.91
2022-12-13T20:46:23.842Z,95360.28
2022-12-13T20:48:50.820Z,95358.50
2022-12-13T20:51:18.895Z,95342.84
2022-12-13T20:53:46.253Z,95355.38
2022-12-13T20:56:14.287Z,95357.81
2022-12-13T20:58:44.118Z,95357.53
2022-12-13T21:01:15.493Z,95356.31
2022-12-13T21:03:41.912Z,95361.91
2022-12-13T21:06:08.385Z,95367.88
2022-12-13T21:08:53.980Z,95370.75
2022-12-13T21:11:31.072Z,95377.44
2022-12-13T21:14:00.974Z,95372.81
2022-12-13T21:16:32.046Z,95374.31
2022-12-13T21:18:59.595Z,95368.03
2022-12-13T21:21:27.125Z,95368.72
2022-12-13T21:23:53.860Z,95365.84
2022-12-13T21:26:22.946Z,95361.34
2022-12-13T21:28:57.380Z,95359.03
2022-12-13T21:31:24.398Z,95371.47
2022-12-13T21:33:52.193Z,95356.16
2022-12-13T21:36:21.035Z,95361.91
2022-12-13T21:38:47.428Z,95361.91
2022-12-13T21:41:13.983Z,95367.63
2022-12-13T21:43:40.468Z,95366.13
2022-12-13T21:46:08.258Z,95370.63
2022-12-13T21:48:35.222Z,95367.75
2022-12-13T21:51:01.874Z,95372.28
2022-12-13T21:53:28.540Z,95371.72
2022-12-13T21:56:15.188Z,95374.56
2022-12-13T21:59:00.317Z,95378.81
2022-12-13T22:01:27.785Z,95376.38
2022-12-13T22:03:54.219Z,95370.63
2022-12-13T22:06:20.585Z,95377.03
2022-12-13T22:08:47.015Z,95374.56
2022-12-13T22:11:21.114Z,95377.44
2022-12-13T22:13:48.567Z,95363.81
2022-12-13T22:16:15.554Z,95363.81
2022-12-13T22:18:42.196Z,95364.06
2022-12-13T22:21:08.633Z,95363.84
2022-12-13T22:23:34.997Z,95360.84
2022-12-13T22:26:05.321Z,95360.94
2022-12-13T22:28:31.713Z,95368.72
2022-12-13T22:30:58.109Z,95371.06
2022-12-13T22:33:24.514Z,95369.41
2022-12-13T22:35:51.578Z,95371.44
2022-12-13T22:38:18.331Z,95367.63
2022-12-13T22:40:44.714Z,95369.53
2022-12-13T22:43:13.775Z,95371.19
2022-12-13T22:45:42.708Z,95367.34
2022-12-13T22:48:09.136Z,95362.44
2022-12-13T22:50:35.548Z,95368.31
2022-12-13T22:53:02.001Z,95358.63
2022-12-13T22:55:28.810Z,95364.47
2022-12-13T22:57:55.174Z,95366.81
2022-12-13T23:00:21.863Z,95364.22
2022-12-13T23:02:48.528Z,95360.66
2022-12-13T23:05:15.001Z,95364.06
2022-12-13T23:07:41.398Z,95357.25
2022-12-13T23:10:33.297Z,95363.13
2022-12-13T23:13:02.743Z,95366.53
2022-12-13T23:15:36.372Z,95365.31
2022-12-13T23:18:02.758Z,95356.03
2022-12-13T23:20:29.225Z,95356.44
2022-12-13T23:22:55.641Z,95347.97
2022-12-13T23:25:22.025Z,95354.78
2022-12-13T23:27:48.444Z,95359.16
2022-12-13T23:30:14.901Z,95354.09
2022-12-13T23:32:41.540Z,95346.63
2022-12-13T23:35:10.209Z,95343.75
2022-12-13T23:37:37.156Z,95345.09
2022-12-13T23:40:03.812Z,95339.78
2022-12-13T23:42:30.580Z,95339.50
2022-12-13T23:44:56.962Z,95340.31
2022-12-13T23:47:23.363Z,95338.72
2022-12-13T23:49:49.732Z,95339.78
2022-12-13T23:52:16.164Z,95339.00
2022-12-13T23:54:42.605Z,95339.81
2022-12-13T23:57:08.983Z,95341.44
2022-12-13T23:59:35.945Z,95333.81
